createdAt,value
2022-10-19T00:03:08.832Z,11.60
2022-10-19T00:08:11.345Z,11.40
2022-10-19T00:13:13.762Z,11.40
2022-10-19T00:18:16.194Z,11.20
2022-10-19T00:23:18.785Z,11.00
2022-10-19T00:28:21.233Z,11.30
2022-10-19T00:33:23.897Z,11.80
2022-10-19T00:38:26.393Z,11.80
2022-10-19T00:48:34.147Z,12.50
2022-10-19T00:53:37.450Z,11.80
2022-10-19T00:58:42.908Z,12.40
2022-10-19T01:03:45.676Z,10.90
2022-10-19T01:08:48.311Z,10.50
2022-10-19T01:14:35.231Z,10.80
2022-10-19T01:19:43.919Z,10.40
2022-10-19T01:25:10.765Z,10.50
2022-10-19T01:30:33.469Z,10.70
2022-10-19T01:36:01.814Z,10.80
2022-10-19T01:41:16.124Z,10.80
2022-10-19T01:46:21.263Z,12.10
2022-10-19T01:51:28.804Z,11.80
2022-10-19T01:56:34.247Z,12.10
2022-10-19T02:01:41.667Z,12.90
2022-10-19T02:06:44.769Z,11.30
2022-10-19T02:11:54.711Z,11.20
2022-10-19T02:17:22.231Z,12.00
2022-10-19T02:22:25.135Z,11.20
2022-10-19T02:27:27.732Z,11.70
2022-10-19T02:32:30.531Z,11.80
2022-10-19T02:37:33.535Z,11.70
2022-10-19T02:42:45.377Z,11.60
2022-10-19T02:52:52.675Z,12.90
2022-10-19T02:57:55.179Z,12.50
2022-10-19T03:02:57.565Z,12.30
2022-10-19T03:07:59.983Z,11.70
2022-10-19T03:13:02.397Z,13.60
2022-10-19T03:18:04.849Z,11.40
2022-10-19T03:23:07.283Z,12.30
2022-10-19T03:28:09.675Z,11.90
2022-10-19T03:33:12.203Z,12.20
2022-10-19T03:38:14.890Z,13.30
2022-10-19T03:43:17.356Z,12.60
2022-10-19T03:48:19.804Z,12.00
2022-10-19T03:53:22.232Z,12.70
2022-10-19T03:58:24.762Z,11.20
2022-10-19T04:03:27.457Z,11.90
2022-10-19T04:08:30.240Z,13.20
2022-10-19T04:13:34.782Z,11.50
2022-10-19T04:18:37.383Z,12.10
2022-10-19T04:23:39.781Z,10.90
2022-10-19T04:28:42.401Z,10.90
2022-10-19T04:38:48.893Z,11.20
2022-10-19T04:43:56.920Z,10.70
2022-10-19T04:48:59.899Z,11.40
2022-10-19T04:54:03.645Z,11.40
2022-10-19T04:59:06.315Z,12.40
2022-10-19T05:04:10.833Z,12.00
2022-10-19T05:09:13.636Z,11.50
2022-10-19T05:14:16.198Z,11.80
2022-10-19T05:19:18.799Z,11.40
2022-10-19T05:24:21.328Z,11.00
2022-10-19T05:29:24.698Z,11.20
2022-10-19T05:34:27.157Z,11.10
2022-10-19T05:39:29.479Z,11.90
2022-10-19T05:44:32.018Z,11.20
2022-10-19T05:49:34.712Z,12.10
2022-10-19T05:54:41.506Z,13.00
2022-10-19T06:05:25.708Z,13.90
2022-10-19T06:10:28.435Z,14.00
2022-10-19T06:15:34.178Z,11.90
2022-10-19T06:20:38.398Z,12.70
2022-10-19T06:25:41.104Z,11.00
2022-10-19T06:30:43.745Z,10.90
2022-10-19T06:35:46.277Z,11.70
2022-10-19T06:40:51.615Z,13.10
2022-10-19T06:45:54.310Z,11.50
2022-10-19T06:50:58.499Z,13.10
2022-10-19T06:56:02.387Z,13.30
2022-10-19T07:01:07.877Z,13.30
2022-10-19T07:06:12.414Z,13.40
2022-10-19T07:11:20.114Z,12.80
2022-10-19T07:16:22.922Z,12.00
2022-10-19T07:21:25.449Z,14.40
2022-10-19T07:26:30.649Z,15.00
2022-10-19T07:31:33.070Z,12.20
2022-10-19T07:36:37.059Z,12.40
2022-10-19T07:41:40.026Z,12.70
2022-10-19T07:46:42.590Z,13.80
2022-10-19T07:51:46.540Z,14.60
2022-10-19T07:56:48.993Z,13.50
2022-10-19T08:01:53.160Z,13.90
2022-10-19T08:06:55.766Z,13.70
2022-10-19T08:11:58.279Z,14.20
2022-10-19T08:17:01.524Z,14.10
2022-10-19T08:22:04.087Z,15.00
2022-10-19T08:27:06.538Z,12.20
2022-10-19T08:37:25.681Z,11.60
2022-10-19T08:48:22.169Z,11.80
2022-10-19T08:58:37.143Z,11.60
2022-10-19T09:03:55.530Z,12.50
2022-10-19T09:09:01.164Z,11.70
2022-10-19T09:14:46.841Z,13.10
2022-10-19T09:19:49.456Z,13.20
2022-10-19T09:24:55.433Z,14.00
2022-10-19T09:35:05.493Z,13.10
2022-10-19T09:40:17.922Z,13.20
2022-10-19T09:45:35.703Z,13.20
2022-10-19T09:50:43.732Z,12.30
2022-10-19T09:55:51.437Z,12.60
2022-10-19T10:00:55.474Z,12.70
2022-10-19T10:06:14.400Z,13.00
2022-10-19T10:11:23.875Z,12.70
2022-10-19T10:16:30.759Z,12.50
2022-10-19T10:21:45.850Z,11.70
2022-10-19T10:26:54.086Z,12.40
2022-10-19T10:32:32.677Z,11.00
2022-10-19T10:42:46.261Z,10.80
2022-10-19T10:47:48.873Z,11.00
2022-10-19T10:53:03.635Z,11.00
2022-10-19T10:58:29.617Z,11.00
2022-10-19T11:03:34.890Z,10.90
2022-10-19T11:09:11.764Z,11.60
2022-10-19T11:14:46.677Z,11.60
2022-10-19T11:19:51.595Z,13.00
2022-10-19T11:25:21.630Z,11.90
2022-10-19T11:30:25.968Z,11.40
2022-10-19T11:35:47.296Z,11.60
2022-10-19T11:41:17.863Z,11.70
2022-10-19T11:46:29.376Z,11.90
2022-10-19T11:51:57.609Z,11.80
2022-10-19T11:57:11.458Z,12.40
2022-10-19T12:03:01.493Z,12.90
2022-10-19T12:08:28.071Z,12.80
2022-10-19T12:13:42.175Z,12.30
2022-10-19T12:18:55.781Z,12.70
2022-10-19T12:24:00.829Z,12.80
2022-10-19T12:29:07.264Z,12.90
2022-10-19T12:34:50.073Z,12.60
2022-10-19T12:40:38.012Z,12.30
2022-10-19T12:46:01.027Z,12.30
2022-10-19T12:51:06.949Z,12.10
2022-10-19T12:56:09.671Z,12.00
2022-10-19T13:01:16.241Z,11.70
2022-10-19T13:06:29.734Z,11.60
2022-10-19T13:11:33.114Z,12.00
2022-10-19T13:16:40.413Z,12.60
2022-10-19T13:22:01.073Z,13.40
2022-10-19T13:27:03.470Z,14.10
2022-10-19T13:32:32.439Z,13.80
2022-10-19T13:37:35.733Z,13.10
2022-10-19T13:42:38.599Z,12.90
2022-10-19T13:47:47.635Z,12.60
2022-10-19T13:53:05.465Z,12.60
2022-10-19T13:58:53.637Z,12.90
2022-10-19T14:04:46.762Z,12.90
2022-10-19T14:10:08.579Z,13.20
2022-10-19T14:15:21.624Z,13.00
2022-10-19T14:20:35.972Z,13.50
2022-10-19T14:25:38.852Z,13.50
2022-10-19T14:30:41.317Z,13.30
2022-10-19T14:35:50.048Z,13.00
2022-10-19T14:40:52.684Z,13.50
2022-10-19T14:46:09.473Z,12.60
2022-10-19T14:51:26.696Z,12.40
2022-10-19T14:56:32.457Z,12.10
2022-10-19T15:01:35.778Z,11.70
2022-10-19T15:06:42.541Z,11.30
2022-10-19T15:11:50.026Z,11.10
2022-10-19T15:16:55.450Z,10.80
2022-10-19T15:22:21.834Z,10.70
2022-10-19T15:27:31.250Z,10.40
2022-10-19T15:32:37.619Z,10.30
2022-10-19T15:37:43.854Z,10.10
2022-10-19T15:42:48.731Z,10.00
2022-10-19T15:48:11.001Z,9.90
2022-10-19T15:53:13.391Z,9.70
2022-10-19T15:58:15.878Z,9.60
2022-10-19T16:03:18.329Z,9.30
2022-10-19T16:08:20.687Z,9.20
2022-10-19T16:13:23.164Z,9.00
2022-10-19T16:18:25.844Z,8.80
2022-10-19T16:23:28.609Z,8.60
2022-10-19T16:33:33.797Z,8.30
2022-10-19T16:38:37.038Z,8.20
2022-10-19T16:43:39.490Z,7.90
2022-10-19T16:48:44.749Z,8.10
2022-10-19T16:53:52.139Z,8.10
2022-10-19T16:58:59.748Z,8.00
2022-10-19T17:04:02.189Z,7.80
2022-10-19T17:14:28.218Z,7.50
2022-10-19T17:19:30.966Z,7.10
2022-10-19T17:24:33.345Z,6.80
2022-10-19T17:29:35.980Z,6.70
2022-10-19T17:34:38.413Z,6.20
2022-10-19T17:39:40.936Z,6.10
2022-10-19T17:44:43.248Z,5.90
2022-10-19T17:49:45.743Z,6.30
2022-10-19T17:55:00.556Z,6.40
2022-10-19T18:00:10.825Z,6.00
2022-10-19T18:05:15.973Z,5.90
2022-10-19T18:10:18.315Z,5.90
2022-10-19T18:15:20.720Z,5.80
2022-10-19T18:20:23.116Z,5.20
2022-10-19T18:25:42.322Z,4.80
2022-10-19T18:35:51.144Z,4.70
2022-10-19T18:40:53.860Z,4.50
2022-10-19T18:45:58.427Z,4.20
2022-10-19T18:51:04.444Z,4.20
2022-10-19T18:56:09.017Z,4.10
2022-10-19T19:01:16.995Z,4.00
2022-10-19T19:06:24.619Z,3.90
2022-10-19T19:16:40.859Z,3.90
2022-10-19T19:21:44.885Z,3.80
2022-10-19T19:26:53.051Z,3.90
2022-10-19T19:31:55.500Z,3.70
2022-10-19T19:36:57.908Z,3.60
2022-10-19T19:42:00.289Z,3.70
2022-10-19T19:47:03.076Z,3.40
2022-10-19T19:52:05.511Z,3.20
2022-10-19T19:57:08.165Z,3.20
2022-10-19T20:02:11.505Z,3.30
2022-10-19T20:07:14.406Z,3.30
2022-10-19T20:17:24.019Z,3.00
2022-10-19T20:22:26.410Z,2.80
2022-10-19T20:27:29.142Z,2.80
2022-10-19T20:32:31.616Z,2.80
2022-10-19T20:37:34.335Z,2.60
2022-10-19T20:42:37.024Z,2.70
2022-10-19T20:47:40.300Z,2.70
2022-10-19T20:52:42.977Z,2.70
2022-10-19T20:57:45.587Z,2.80
2022-10-19T21:02:47.944Z,2.70
2022-10-19T21:07:50.332Z,2.60
2022-10-19T21:17:55.437Z,2.40
2022-10-19T21:22:58.741Z,2.10
2022-10-19T21:28:01.265Z,2.30
2022-10-19T21:33:03.683Z,2.20
2022-10-19T21:38:06.026Z,2.00
2022-10-19T21:43:11.155Z,1.90
2022-10-19T21:48:14.120Z,1.90
2022-10-19T21:53:20.445Z,1.90
2022-10-19T21:58:23.026Z,1.80
2022-10-19T22:03:25.451Z,1.70
2022-10-19T22:08:28.180Z,1.60
2022-10-19T22:13:30.671Z,1.60
2022-10-19T22:18:33.634Z,1.50
2022-10-19T22:23:36.374Z,1.50
2022-10-19T22:28:38.927Z,1.50
2022-10-19T22:33:41.509Z,1.40
2022-10-19T22:38:44.054Z,1.40
2022-10-19T22:43:46.771Z,1.20
2022-10-19T22:48:49.300Z,1.30
2022-10-19T22:53:51.789Z,1.20
2022-10-19T22:58:58.727Z,1.20
2022-10-19T23:04:01.165Z,1.00
2022-10-19T23:09:04.515Z,1.00
2022-10-19T23:14:06.997Z,1.10
2022-10-19T23:24:12.371Z,0.90
2022-10-19T23:29:15.295Z,0.80
2022-10-19T23:34:18.036Z,0.80
2022-10-19T23:39:20.424Z,0.90
2022-10-19T23:44:22.911Z,0.90
2022-10-19T23:49:25.374Z,0.70
2022-10-19T23:54:27.846Z,0.70
2022-10-19T23:59:30.409Z,0.60
